createdAt,value
2023-02-20T00:01:37.370Z,2.36
2023-02-20T00:06:39.736Z,2.41
2023-02-20T00:11:42.469Z,2.44
2023-02-20T00:16:48.319Z,2.61
2023-02-20T00:21:53.123Z,2.64
2023-02-20T00:26:55.531Z,2.62
2023-02-20T00:31:59.249Z,2.63
2023-02-20T00:37:01.744Z,2.64
2023-02-20T00:42:04.268Z,2.68
2023-02-20T00:47:06.743Z,2.66
2023-02-20T00:52:09.204Z,2.66
2023-02-20T00:57:11.661Z,2.66
2023-02-20T01:02:14.164Z,2.52
2023-02-20T01:07:16.800Z,2.40
2023-02-20T01:12:19.199Z,2.54
2023-02-20T01:17:22.460Z,2.55
2023-02-20T01:22:24.943Z,2.56
2023-02-20T01:27:27.730Z,2.50
2023-02-20T01:32:30.266Z,2.43
2023-02-20T01:37:33.094Z,2.38
2023-02-20T01:42:35.726Z,2.40
2023-02-20T01:47:38.169Z,2.37
2023-02-20T01:52:43.956Z,2.20
2023-02-20T01:57:54.475Z,2.21
2023-02-20T02:03:18.627Z,2.26
2023-02-20T02:08:27.300Z,2.38
2023-02-20T02:13:34.014Z,2.40
2023-02-20T02:18:54.992Z,2.49
2023-02-20T02:24:25.116Z,2.46
2023-02-20T02:29:51.012Z,2.49
2023-02-20T02:35:14.844Z,2.29
2023-02-20T02:40:40.391Z,2.30
2023-02-20T02:46:07.163Z,2.27
2023-02-20T02:51:24.057Z,2.38
2023-02-20T02:56:37.967Z,2.41
2023-02-20T03:01:45.479Z,2.46
2023-02-20T03:06:49.519Z,2.45
2023-02-20T03:11:52.834Z,2.50
2023-02-20T03:17:21.195Z,2.55
2023-02-20T03:22:26.478Z,2.57
2023-02-20T03:27:50.941Z,2.64
2023-02-20T03:33:21.919Z,2.70
2023-02-20T03:38:44.216Z,2.79
2023-02-20T03:43:48.668Z,2.84
2023-02-20T03:48:57.398Z,2.89
2023-02-20T03:54:02.104Z,2.79
2023-02-20T03:59:15.132Z,2.68
2023-02-20T04:04:23.868Z,2.79
2023-02-20T04:09:33.924Z,2.76
2023-02-20T04:14:37.585Z,2.63
2023-02-20T04:19:41.380Z,2.62
2023-02-20T04:24:50.246Z,2.41
2023-02-20T04:29:53.051Z,2.39
2023-02-20T04:34:55.838Z,2.49
2023-02-20T04:39:58.395Z,2.97
2023-02-20T04:45:00.940Z,2.92
2023-02-20T04:50:07.305Z,3.19
2023-02-20T04:55:09.790Z,3.35
2023-02-20T05:00:13.113Z,4.04
2023-02-20T05:05:23.272Z,4.78
2023-02-20T05:10:27.728Z,5.70
2023-02-20T05:15:32.122Z,6.00
2023-02-20T05:21:07.053Z,5.72
2023-02-20T05:26:11.553Z,5.95
2023-02-20T05:31:17.300Z,5.53
2023-02-20T05:36:20.235Z,5.12
2023-02-20T05:41:23.037Z,4.96
2023-02-20T05:46:26.805Z,4.94
2023-02-20T05:51:31.198Z,4.92
2023-02-20T05:56:35.304Z,5.39
2023-02-20T06:01:37.828Z,6.01
2023-02-20T06:06:42.123Z,7.70
2023-02-20T06:11:55.622Z,8.73
2023-02-20T06:16:58.272Z,9.18
2023-02-20T06:22:01.878Z,9.81
2023-02-20T06:27:04.641Z,8.81
2023-02-20T06:32:07.338Z,8.23
2023-02-20T06:37:11.370Z,7.78
2023-02-20T06:42:13.846Z,7.59
2023-02-20T06:47:16.369Z,7.59
2023-02-20T06:52:18.852Z,9.56
2023-02-20T06:57:21.552Z,11.06
2023-02-20T07:02:23.984Z,9.38
2023-02-20T07:07:26.389Z,9.94
2023-02-20T07:12:38.836Z,9.69
2023-02-20T07:17:43.420Z,9.42
2023-02-20T07:22:52.303Z,9.53
2023-02-20T07:27:54.727Z,9.42
2023-02-20T07:32:57.232Z,9.54
2023-02-20T07:37:59.687Z,9.21
2023-02-20T07:43:02.355Z,10.14
2023-02-20T07:54:45.704Z,13.07
2023-02-20T07:59:48.330Z,13.43
2023-02-20T08:04:51.217Z,11.58
2023-02-20T08:09:53.882Z,9.70
2023-02-20T08:14:56.481Z,9.66
2023-02-20T08:19:59.051Z,9.62
2023-02-20T08:25:01.766Z,9.58
2023-02-20T08:30:11.123Z,8.71
2023-02-20T08:35:13.685Z,8.27
2023-02-20T08:40:16.446Z,8.33
2023-02-20T08:45:19.239Z,8.38
2023-02-20T08:50:21.943Z,8.90
2023-02-20T08:55:24.535Z,9.56
2023-02-20T09:00:27.247Z,9.55
2023-02-20T09:05:29.814Z,9.00
2023-02-20T09:10:32.789Z,8.97
2023-02-20T09:15:40.087Z,9.64
2023-02-20T09:20:43.172Z,9.58
2023-02-20T09:25:46.487Z,10.20
2023-02-20T09:30:49.091Z,10.99
2023-02-20T09:35:52.375Z,11.70
2023-02-20T09:41:00.856Z,11.39
2023-02-20T09:46:19.945Z,10.82
2023-02-20T09:51:27.686Z,10.71
2023-02-20T09:56:37.667Z,10.11
2023-02-20T10:01:52.568Z,9.49
2023-02-20T10:07:04.782Z,9.32
2023-02-20T10:12:31.816Z,9.09
2023-02-20T10:17:45.473Z,9.16
2023-02-20T10:23:28.828Z,9.22
2023-02-20T10:28:31.550Z,9.04
2023-02-20T10:33:37.365Z,8.69
2023-02-20T10:39:03.549Z,8.44
2023-02-20T10:44:18.600Z,8.65
2023-02-20T10:49:39.099Z,8.65
2023-02-20T10:54:46.472Z,8.50
2023-02-20T10:59:59.809Z,8.55
2023-02-20T11:05:08.034Z,9.56
2023-02-20T11:10:10.642Z,9.72
2023-02-20T11:15:21.725Z,9.46
2023-02-20T11:20:33.178Z,9.32
2023-02-20T11:25:39.934Z,9.00
2023-02-20T11:30:44.709Z,9.05
2023-02-20T11:35:52.261Z,8.83
2023-02-20T11:40:56.243Z,8.41
2023-02-20T11:46:21.911Z,8.20
2023-02-20T11:51:41.136Z,8.21
2023-02-20T11:57:10.452Z,8.35
2023-02-20T12:02:16.031Z,7.99
2023-02-20T12:07:27.045Z,7.80
2023-02-20T12:12:33.206Z,7.40
2023-02-20T12:17:51.571Z,7.42
2023-02-20T12:23:24.189Z,7.55
2023-02-20T12:28:47.844Z,7.51
2023-02-20T12:34:24.011Z,7.13
2023-02-20T12:39:43.490Z,7.04
2023-02-20T12:45:06.128Z,7.01
2023-02-20T12:50:27.492Z,6.78
2023-02-20T12:55:36.422Z,6.84
2023-02-20T13:00:40.817Z,6.40
2023-02-20T13:05:46.206Z,6.63
2023-02-20T13:10:56.729Z,6.27
2023-02-20T13:16:10.483Z,6.31
2023-02-20T13:21:16.976Z,6.18
2023-02-20T13:26:34.602Z,6.21
2023-02-20T13:31:37.245Z,6.08
2023-02-20T13:36:46.052Z,6.01
2023-02-20T13:41:55.446Z,5.95
2023-02-20T13:46:59.304Z,5.70
2023-02-20T13:52:02.286Z,5.76
2023-02-20T13:57:18.617Z,5.62
2023-02-20T14:02:29.631Z,5.47
2023-02-20T14:07:43.189Z,5.42
2023-02-20T14:12:53.547Z,5.27
2023-02-20T14:17:58.377Z,5.23
2023-02-20T14:23:09.297Z,5.20
2023-02-20T14:28:15.411Z,5.11
2023-02-20T14:33:31.269Z,4.98
2023-02-20T14:38:55.700Z,5.04
2023-02-20T14:44:00.215Z,5.14
2023-02-20T14:49:17.574Z,4.81
2023-02-20T14:54:23.127Z,4.64
2023-02-20T14:59:35.538Z,4.52
2023-02-20T15:04:38.330Z,4.25
2023-02-20T15:09:44.744Z,4.27
2023-02-20T15:14:56.455Z,4.14
2023-02-20T15:19:59.359Z,4.03
2023-02-20T15:25:14.229Z,4.06
2023-02-20T15:30:20.032Z,4.09
2023-02-20T15:35:26.836Z,3.96
2023-02-20T15:40:34.289Z,3.92
2023-02-20T15:45:37.974Z,3.83
2023-02-20T15:50:40.544Z,3.79
2023-02-20T15:55:44.694Z,3.69
2023-02-20T16:00:47.304Z,3.52
2023-02-20T16:05:49.939Z,3.40
2023-02-20T16:10:54.245Z,3.35
2023-02-20T16:15:57.577Z,3.28
2023-02-20T16:21:00.688Z,3.21
2023-02-20T16:26:03.447Z,3.11
2023-02-20T16:31:06.244Z,2.91
2023-02-20T16:36:13.800Z,2.91
2023-02-20T16:41:19.281Z,2.82
2023-02-20T16:46:37.301Z,2.66
2023-02-20T16:51:40.754Z,2.54
2023-02-20T16:56:43.338Z,2.48
2023-02-20T17:01:45.867Z,2.44
2023-02-20T17:06:48.407Z,2.39
2023-02-20T17:11:51.080Z,2.31
2023-02-20T17:16:53.748Z,2.26
2023-02-20T17:21:56.392Z,2.22
2023-02-20T17:26:59.541Z,2.25
2023-02-20T17:32:02.225Z,2.18
2023-02-20T17:37:05.009Z,2.16
2023-02-20T17:42:08.191Z,2.23
2023-02-20T17:47:10.873Z,2.27
2023-02-20T17:52:13.472Z,2.27
2023-02-20T17:57:19.535Z,2.36
2023-02-20T18:02:22.212Z,2.32
2023-02-20T18:07:24.721Z,2.30
2023-02-20T18:12:27.416Z,2.26
2023-02-20T18:17:30.365Z,2.17
2023-02-20T18:22:32.972Z,2.06
2023-02-20T18:27:35.550Z,1.94
2023-02-20T18:32:38.174Z,1.90
2023-02-20T18:37:40.758Z,1.83
2023-02-20T18:42:43.325Z,1.72
2023-02-20T18:47:52.547Z,1.63
2023-02-20T18:52:55.091Z,1.56
2023-02-20T18:57:59.387Z,1.47
2023-02-20T19:03:02.991Z,1.46
2023-02-20T19:08:05.784Z,1.39
2023-02-20T19:13:08.441Z,1.26
2023-02-20T19:18:13.667Z,1.28
2023-02-20T19:23:16.144Z,1.23
2023-02-20T19:28:18.753Z,1.16
2023-02-20T19:33:21.421Z,1.11
2023-02-20T19:38:24.259Z,1.09
2023-02-20T19:43:28.049Z,1.14
2023-02-20T19:48:30.520Z,1.14
2023-02-20T19:53:34.341Z,1.08
2023-02-20T19:58:40.445Z,1.10
2023-02-20T20:03:47.677Z,1.13
2023-02-20T20:09:10.978Z,1.08
2023-02-20T20:14:12.835Z,1.09
2023-02-20T20:19:16.524Z,1.02
2023-02-20T20:24:19.474Z,0.90
2023-02-20T20:29:22.062Z,0.92
2023-02-20T20:34:25.633Z,0.85
2023-02-20T20:39:28.126Z,0.86
2023-02-20T20:44:30.638Z,0.88
2023-02-20T20:49:34.758Z,0.85
2023-02-20T20:54:37.376Z,0.87
2023-02-20T20:59:41.651Z,0.79
2023-02-20T21:04:47.131Z,0.72
2023-02-20T21:09:49.681Z,0.77
2023-02-20T21:14:53.720Z,0.71
2023-02-20T21:19:56.249Z,0.70
2023-02-20T21:24:59.033Z,0.71
2023-02-20T21:30:01.637Z,0.64
2023-02-20T21:35:05.638Z,0.64
2023-02-20T21:40:08.993Z,0.72
2023-02-20T21:45:11.563Z,0.64
2023-02-20T21:50:16.667Z,0.63
2023-02-20T21:55:20.498Z,0.62
2023-02-20T22:00:23.383Z,0.59
2023-02-20T22:05:25.916Z,0.60
2023-02-20T22:10:46.829Z,0.56
2023-02-20T22:16:07.880Z,0.61
2023-02-20T22:21:28.890Z,0.61
2023-02-20T22:26:50.008Z,0.58
2023-02-20T22:32:11.397Z,0.49
2023-02-20T22:37:32.380Z,0.46
2023-02-20T22:42:53.599Z,0.47
2023-02-20T22:48:14.926Z,0.48
2023-02-20T22:53:36.062Z,0.35
2023-02-20T22:58:57.169Z,0.35
2023-02-20T23:04:18.186Z,0.44
2023-02-20T23:09:39.362Z,0.53
2023-02-20T23:15:01.000Z,0.54
2023-02-20T23:20:27.187Z,0.52
2023-02-20T23:25:48.468Z,0.50
2023-02-20T23:31:09.442Z,0.74
2023-02-20T23:36:30.836Z,1.04
2023-02-20T23:41:51.643Z,1.08
2023-02-20T23:47:12.732Z,1.06
2023-02-20T23:52:33.954Z,0.92
2023-02-20T23:57:56.209Z,0.80
